createdAt,value
2023-02-17T00:01:32.383Z,2.63
2023-02-17T00:04:00.368Z,2.20
2023-02-17T00:06:30.729Z,2.95
2023-02-17T00:08:59.634Z,1.35
2023-02-17T00:11:28.592Z,2.78
2023-02-17T00:13:56.564Z,2.30
2023-02-17T00:16:26.635Z,1.80
2023-02-17T00:19:02.094Z,1.92
2023-02-17T00:21:31.786Z,1.75
2023-02-17T00:23:59.550Z,2.75
2023-02-17T00:26:26.780Z,2.33
2023-02-17T00:28:53.656Z,1.73
2023-02-17T00:31:22.874Z,2.72
2023-02-17T00:33:50.257Z,2.10
2023-02-17T00:36:20.077Z,2.13
2023-02-17T00:38:48.778Z,1.88
2023-02-17T00:41:17.546Z,1.88
2023-02-17T00:43:45.405Z,3.08
2023-02-17T00:46:12.427Z,3.40
2023-02-17T00:48:39.515Z,2.03
2023-02-17T00:51:07.134Z,1.98
2023-02-17T00:53:34.016Z,3.13
2023-02-17T00:56:01.004Z,2.50
2023-02-17T00:58:28.223Z,2.08
2023-02-17T01:00:58.754Z,3.22
2023-02-17T01:03:27.008Z,1.70
2023-02-17T01:05:55.442Z,3.17
2023-02-17T01:08:24.432Z,2.20
2023-02-17T01:10:52.800Z,2.85
2023-02-17T01:13:20.222Z,2.92
2023-02-17T01:15:52.547Z,4.22
2023-02-17T01:18:23.168Z,3.53
2023-02-17T01:20:50.173Z,1.73
2023-02-17T01:23:17.663Z,2.28
2023-02-17T01:25:47.082Z,3.40
2023-02-17T01:28:21.360Z,2.60
2023-02-17T01:30:49.843Z,3.00
2023-02-17T01:33:16.801Z,3.00
2023-02-17T01:35:43.774Z,3.17
2023-02-17T01:38:10.980Z,2.30
2023-02-17T01:40:37.863Z,2.15
2023-02-17T01:43:06.507Z,2.67
2023-02-17T01:45:47.226Z,2.40
2023-02-17T01:48:22.177Z,1.60
2023-02-17T01:50:54.853Z,3.30
2023-02-17T01:53:32.428Z,3.08
2023-02-17T01:55:59.467Z,2.03
2023-02-17T01:58:28.442Z,4.60
2023-02-17T02:00:58.468Z,3.13
2023-02-17T02:03:26.855Z,3.05
2023-02-17T02:05:53.654Z,3.05
2023-02-17T02:08:20.505Z,2.15
2023-02-17T02:10:47.379Z,1.30
2023-02-17T02:13:14.553Z,2.42
2023-02-17T02:16:02.506Z,1.58
2023-02-17T02:19:29.425Z,1.63
2023-02-17T02:22:26.770Z,1.98
2023-02-17T02:25:30.878Z,1.83
2023-02-17T02:28:27.111Z,2.45
2023-02-17T02:31:11.486Z,0.77
2023-02-17T02:33:48.221Z,3.10
2023-02-17T02:36:52.372Z,0.35
2023-02-17T02:39:29.361Z,0.57
2023-02-17T02:42:03.548Z,2.58
2023-02-17T02:44:30.929Z,0.90
2023-02-17T02:47:07.899Z,1.73
2023-02-17T02:49:36.912Z,2.00
2023-02-17T02:52:33.777Z,2.10
2023-02-17T02:55:20.903Z,1.42
2023-02-17T02:58:22.795Z,2.13
2023-02-17T03:00:58.233Z,1.95
2023-02-17T03:03:37.748Z,1.58
2023-02-17T03:06:16.021Z,2.40
2023-02-17T03:09:17.605Z,2.60
2023-02-17T03:11:45.750Z,2.53
2023-02-17T03:14:17.598Z,1.30
2023-02-17T03:16:46.914Z,1.20
2023-02-17T03:19:15.585Z,3.45
2023-02-17T03:21:52.489Z,2.65
2023-02-17T03:24:19.782Z,2.72
2023-02-17T03:26:46.674Z,3.17
2023-02-17T03:29:13.601Z,2.00
2023-02-17T03:31:40.868Z,3.65
2023-02-17T03:34:08.616Z,1.38
2023-02-17T03:36:35.462Z,1.95
2023-02-17T03:39:02.373Z,1.17
2023-02-17T03:41:29.418Z,1.38
2023-02-17T03:43:56.239Z,0.95
2023-02-17T03:46:23.004Z,1.17
2023-02-17T03:48:50.153Z,2.05
2023-02-17T03:51:23.736Z,1.67
2023-02-17T03:53:51.520Z,4.35
2023-02-17T03:56:19.459Z,1.98
2023-02-17T03:58:46.319Z,1.23
2023-02-17T04:01:14.699Z,2.78
2023-02-17T04:03:42.676Z,1.98
2023-02-17T04:06:10.752Z,0.80
2023-02-17T04:08:39.023Z,1.50
2023-02-17T04:11:08.554Z,1.73
2023-02-17T04:13:35.996Z,2.63
2023-02-17T04:16:04.847Z,2.33
2023-02-17T04:18:32.554Z,2.38
2023-02-17T04:20:59.513Z,1.75
2023-02-17T04:23:26.377Z,0.60
2023-02-17T04:25:53.411Z,1.15
2023-02-17T04:28:21.591Z,1.05
2023-02-17T04:30:50.783Z,1.10
2023-02-17T04:33:18.317Z,2.47
2023-02-17T04:35:45.505Z,1.92
2023-02-17T04:38:12.322Z,2.80
2023-02-17T04:40:40.372Z,1.60
2023-02-17T04:43:08.642Z,1.75
2023-02-17T04:45:37.228Z,2.83
2023-02-17T04:48:04.676Z,2.30
2023-02-17T04:50:31.659Z,6.68
2023-02-17T04:52:58.823Z,1.95
2023-02-17T04:55:25.725Z,0.68
2023-02-17T04:57:52.622Z,2.63
2023-02-17T05:00:20.015Z,1.25
2023-02-17T05:02:46.855Z,1.02
2023-02-17T05:05:16.569Z,3.10
2023-02-17T05:07:43.376Z,1.95
2023-02-17T05:10:10.834Z,0.70
2023-02-17T05:12:37.976Z,1.35
2023-02-17T05:15:05.752Z,1.58
2023-02-17T05:17:33.312Z,1.30
2023-02-17T05:20:00.682Z,3.40
2023-02-17T05:22:28.220Z,1.55
2023-02-17T05:24:55.098Z,2.15
2023-02-17T05:27:22.117Z,1.83
2023-02-17T05:29:49.097Z,1.48
2023-02-17T05:32:15.938Z,1.85
2023-02-17T05:34:43.167Z,1.63
2023-02-17T05:37:10.353Z,0.95
2023-02-17T05:39:37.317Z,2.28
2023-02-17T05:42:04.500Z,3.00
2023-02-17T05:44:31.384Z,2.92
2023-02-17T05:46:58.463Z,2.88
2023-02-17T05:49:25.265Z,1.40
2023-02-17T05:51:52.028Z,2.70
2023-02-17T05:54:19.280Z,2.13
2023-02-17T05:56:46.140Z,0.98
2023-02-17T05:59:12.960Z,2.30
2023-02-17T06:01:39.719Z,3.20
2023-02-17T06:04:06.488Z,1.80
2023-02-17T06:06:33.318Z,1.38
2023-02-17T06:09:00.517Z,1.13
2023-02-17T06:11:27.324Z,1.85
2023-02-17T06:13:54.112Z,2.58
2023-02-17T06:16:21.055Z,1.35
2023-02-17T06:18:47.889Z,1.55
2023-02-17T06:21:15.110Z,1.25
2023-02-17T06:23:41.924Z,1.10
2023-02-17T06:26:08.875Z,1.45
2023-02-17T06:28:38.780Z,2.90
2023-02-17T06:31:05.822Z,2.15
2023-02-17T06:33:32.854Z,2.95
2023-02-17T06:36:00.030Z,2.67
2023-02-17T06:38:27.157Z,2.08
2023-02-17T06:40:54.641Z,1.67
2023-02-17T06:43:21.625Z,1.73
2023-02-17T06:45:48.741Z,1.48
2023-02-17T06:48:15.626Z,2.00
2023-02-17T06:50:42.469Z,3.10
2023-02-17T06:53:09.279Z,2.83
2023-02-17T06:55:37.395Z,2.95
2023-02-17T06:58:04.597Z,1.73
2023-02-17T07:00:31.703Z,1.80
2023-02-17T07:02:59.220Z,1.92
2023-02-17T07:05:26.116Z,1.65
2023-02-17T07:07:53.738Z,1.80
2023-02-17T07:10:20.886Z,1.30
2023-02-17T07:12:47.725Z,1.73
2023-02-17T07:15:15.288Z,3.00
2023-02-17T07:17:42.069Z,1.75
2023-02-17T07:20:09.775Z,1.70
2023-02-17T07:22:36.823Z,1.42
2023-02-17T07:25:04.635Z,1.52
2023-02-17T07:27:32.431Z,1.77
2023-02-17T07:29:59.277Z,1.65
2023-02-17T07:32:26.191Z,3.78
2023-02-17T07:34:53.172Z,2.42
2023-02-17T07:37:21.958Z,2.20
2023-02-17T07:39:49.442Z,1.00
2023-02-17T07:42:16.340Z,2.05
2023-02-17T07:44:43.490Z,1.10
2023-02-17T07:47:10.273Z,0.57
2023-02-17T07:49:37.043Z,1.13
2023-02-17T07:52:05.375Z,1.63
2023-02-17T07:54:32.389Z,1.85
2023-02-17T07:56:59.810Z,1.27
2023-02-17T07:59:27.051Z,1.38
2023-02-17T08:01:54.021Z,3.72
2023-02-17T08:04:21.102Z,1.15
2023-02-17T08:06:48.003Z,2.45
2023-02-17T08:09:33.707Z,1.85
2023-02-17T08:12:19.476Z,3.42
2023-02-17T08:14:46.308Z,1.08
2023-02-17T08:17:13.147Z,2.15
2023-02-17T08:19:48.195Z,1.25
2023-02-17T08:22:17.524Z,3.08
2023-02-17T08:24:44.985Z,1.73
2023-02-17T08:27:11.853Z,1.40
2023-02-17T08:29:38.799Z,1.92
2023-02-17T08:32:05.760Z,1.63
2023-02-17T08:34:35.926Z,2.00
2023-02-17T08:37:05.625Z,2.72
2023-02-17T08:39:34.418Z,2.20
2023-02-17T08:42:02.415Z,4.95
2023-02-17T08:44:29.500Z,1.33
2023-02-17T08:46:56.499Z,1.95
2023-02-17T08:49:28.621Z,3.88
2023-02-17T08:51:55.933Z,2.78
2023-02-17T08:54:22.771Z,3.80
2023-02-17T08:56:49.598Z,1.30
2023-02-17T08:59:16.455Z,2.78
2023-02-17T09:01:44.400Z,2.17
2023-02-17T09:04:14.433Z,2.05
2023-02-17T09:06:48.800Z,2.78
2023-02-17T09:09:19.601Z,3.25
2023-02-17T09:11:46.631Z,1.77
2023-02-17T09:14:13.873Z,2.30
2023-02-17T09:16:41.679Z,1.73
2023-02-17T09:19:08.900Z,1.00
2023-02-17T09:21:35.748Z,2.05
2023-02-17T09:24:02.655Z,1.27
2023-02-17T09:26:29.790Z,1.92
2023-02-17T09:28:58.151Z,1.02
2023-02-17T09:31:27.244Z,1.83
2023-02-17T09:33:54.670Z,1.52
2023-02-17T09:36:29.150Z,0.98
2023-02-17T09:38:56.837Z,1.45
2023-02-17T09:41:32.190Z,2.10
2023-02-17T09:43:59.812Z,1.60
2023-02-17T09:46:33.736Z,0.85
2023-02-17T09:49:08.718Z,1.25
2023-02-17T09:52:09.427Z,0.60
2023-02-17T09:55:04.298Z,1.13
2023-02-17T09:57:41.926Z,0.87
2023-02-17T10:00:44.289Z,1.10
2023-02-17T10:03:36.503Z,0.98
2023-02-17T10:06:16.739Z,1.95
2023-02-17T10:09:13.848Z,0.77
2023-02-17T10:11:52.911Z,1.27
2023-02-17T10:14:29.628Z,0.95
2023-02-17T10:17:21.613Z,1.27
2023-02-17T10:19:56.524Z,0.47
2023-02-17T10:22:25.009Z,1.77
2023-02-17T10:24:52.429Z,1.23
2023-02-17T10:27:38.270Z,4.25
2023-02-17T10:30:05.745Z,1.17
2023-02-17T10:32:53.226Z,3.58
2023-02-17T10:35:53.472Z,2.78
2023-02-17T10:38:44.730Z,3.95
2023-02-17T10:41:16.387Z,1.48
2023-02-17T10:43:45.401Z,2.33
2023-02-17T10:46:16.113Z,2.67
2023-02-17T10:48:51.335Z,2.88
2023-02-17T10:51:26.274Z,0.88
2023-02-17T10:54:07.894Z,1.88
2023-02-17T10:56:39.922Z,1.85
2023-02-17T10:59:24.088Z,8.82
2023-02-17T11:01:51.550Z,2.08
2023-02-17T11:04:18.371Z,3.63
2023-02-17T11:06:50.768Z,2.22
2023-02-17T11:09:23.469Z,3.35
2023-02-17T11:12:17.409Z,13.15
2023-02-17T11:14:47.837Z,6.00
2023-02-17T11:17:39.422Z,3.38
2023-02-17T11:20:14.093Z,18.55
2023-02-17T11:23:01.420Z,9.88
2023-02-17T11:25:35.576Z,5.57
2023-02-17T11:28:07.533Z,3.17
2023-02-17T11:30:38.272Z,1.63
2023-02-17T11:33:22.737Z,3.03
2023-02-17T11:35:55.064Z,1.42
2023-02-17T11:38:28.969Z,4.18
2023-02-17T11:41:02.949Z,3.63
2023-02-17T11:43:33.172Z,3.50
2023-02-17T11:46:23.469Z,4.63
2023-02-17T11:49:37.081Z,6.88
2023-02-17T11:52:28.423Z,8.10
2023-02-17T11:55:11.639Z,5.05
2023-02-17T11:57:53.568Z,5.85
2023-02-17T12:00:31.440Z,6.13
2023-02-17T12:03:16.743Z,4.38
2023-02-17T12:06:09.322Z,12.25
2023-02-17T12:08:49.054Z,5.50
2023-02-17T12:11:30.892Z,6.38
2023-02-17T12:14:14.848Z,28.85
2023-02-17T12:16:44.468Z,7.25
2023-02-17T12:19:42.273Z,14.07
2023-02-17T12:22:55.347Z,12.45
2023-02-17T12:25:48.274Z,12.10
2023-02-17T12:28:55.096Z,8.88
2023-02-17T12:31:48.102Z,7.03
2023-02-17T12:34:30.368Z,12.30
2023-02-17T12:36:59.878Z,11.23
2023-02-17T12:39:42.282Z,9.77
2023-02-17T12:42:21.027Z,9.70
2023-02-17T12:45:08.188Z,17.45
2023-02-17T12:47:59.538Z,9.30
2023-02-17T12:50:34.265Z,14.07
2023-02-17T12:53:11.419Z,9.85
2023-02-17T12:55:49.039Z,8.73
2023-02-17T12:58:25.802Z,8.02
2023-02-17T13:01:11.134Z,9.73
2023-02-17T13:03:38.207Z,14.85
2023-02-17T13:06:32.421Z,10.00
2023-02-17T13:09:17.327Z,10.18
2023-02-17T13:11:45.775Z,7.97
2023-02-17T13:14:27.811Z,8.30
2023-02-17T13:16:55.497Z,7.55
2023-02-17T13:19:34.807Z,7.22
2023-02-17T13:22:03.460Z,11.38
2023-02-17T13:24:52.546Z,11.30
2023-02-17T13:27:28.506Z,10.93
2023-02-17T13:30:22.581Z,12.57
2023-02-17T13:33:29.539Z,11.63
2023-02-17T13:35:56.503Z,10.23
2023-02-17T13:38:32.420Z,13.82
2023-02-17T13:41:04.807Z,10.07
2023-02-17T13:43:41.506Z,8.10
2023-02-17T13:46:20.287Z,10.55
2023-02-17T13:48:59.031Z,8.20
2023-02-17T13:51:29.498Z,10.27
2023-02-17T13:53:56.534Z,9.73
2023-02-17T13:56:28.046Z,12.50
2023-02-17T13:59:07.290Z,10.13
2023-02-17T14:01:38.753Z,8.32
2023-02-17T14:04:26.844Z,7.60
2023-02-17T14:06:57.360Z,8.98
2023-02-17T14:09:34.467Z,9.40
2023-02-17T14:12:21.108Z,14.68
2023-02-17T14:14:48.636Z,11.98
2023-02-17T14:17:32.718Z,7.93
2023-02-17T14:20:01.362Z,10.07
2023-02-17T14:22:33.852Z,13.63
2023-02-17T14:25:28.569Z,11.40
2023-02-17T14:27:56.437Z,12.57
2023-02-17T14:30:29.763Z,11.30
2023-02-17T14:33:17.978Z,17.83
2023-02-17T14:36:06.567Z,17.90
2023-02-17T14:38:41.716Z,11.98
2023-02-17T14:41:10.265Z,12.38
2023-02-17T14:43:37.657Z,12.25
2023-02-17T14:46:04.889Z,9.50
2023-02-17T14:48:31.987Z,13.27
2023-02-17T14:50:59.692Z,10.18
2023-02-17T14:53:33.386Z,8.65
2023-02-17T14:56:26.100Z,8.60
2023-02-17T14:58:53.969Z,8.05
2023-02-17T15:01:24.157Z,8.73
2023-02-17T15:03:52.641Z,17.60
2023-02-17T15:06:28.813Z,8.38
2023-02-17T15:08:57.049Z,6.88
2023-02-17T15:11:34.566Z,10.38
2023-02-17T15:14:03.025Z,8.50
2023-02-17T15:16:30.574Z,10.15
2023-02-17T15:18:57.823Z,6.93
2023-02-17T15:21:34.127Z,7.60
2023-02-17T15:24:03.058Z,4.72
2023-02-17T15:26:30.983Z,6.93
2023-02-17T15:28:58.682Z,6.22
2023-02-17T15:31:30.152Z,6.47
2023-02-17T15:34:00.084Z,6.53
2023-02-17T15:36:28.795Z,6.55
2023-02-17T15:38:55.946Z,6.72
2023-02-17T15:41:26.418Z,8.48
2023-02-17T15:43:56.397Z,8.88
2023-02-17T15:46:31.437Z,9.45
2023-02-17T15:51:25.585Z,17.23
2023-02-17T15:53:52.423Z,12.57
2023-02-17T15:56:23.504Z,15.85
2023-02-17T15:58:51.064Z,24.45
2023-02-17T16:01:38.499Z,31.10
2023-02-17T16:04:06.851Z,18.48
2023-02-17T16:06:33.772Z,17.77
2023-02-17T16:09:00.658Z,27.80
2023-02-17T16:11:30.023Z,33.70
2023-02-17T16:13:57.105Z,12.00
2023-02-17T16:16:32.937Z,14.30
2023-02-17T16:19:01.046Z,8.98
2023-02-17T16:21:28.488Z,9.75
2023-02-17T16:23:59.844Z,9.48
2023-02-17T16:26:34.670Z,9.82
2023-02-17T16:29:06.627Z,11.48
2023-02-17T16:31:35.935Z,6.80
2023-02-17T16:34:03.185Z,7.45
2023-02-17T16:36:34.582Z,6.00
2023-02-17T16:39:11.924Z,2.90
2023-02-17T16:41:39.345Z,6.97
2023-02-17T16:44:07.881Z,7.85
2023-02-17T16:46:37.367Z,3.92
2023-02-17T16:49:28.463Z,4.72
2023-02-17T16:51:55.673Z,7.75
2023-02-17T16:54:22.468Z,6.63
2023-02-17T16:56:51.621Z,9.10
2023-02-17T16:59:24.514Z,21.38
2023-02-17T17:01:53.491Z,25.52
2023-02-17T17:04:21.714Z,26.80
2023-02-17T17:06:51.719Z,53.35
2023-02-17T17:09:23.939Z,7.72
2023-02-17T17:11:51.211Z,9.82
2023-02-17T17:14:19.447Z,12.05
2023-02-17T17:16:57.255Z,10.13
2023-02-17T17:19:24.714Z,8.25
2023-02-17T17:21:52.060Z,8.98
2023-02-17T17:24:19.018Z,8.40
2023-02-17T17:26:50.490Z,12.50
2023-02-17T17:29:19.743Z,10.32
2023-02-17T17:31:48.683Z,7.85
2023-02-17T17:34:15.542Z,8.23
2023-02-17T17:36:45.671Z,8.80
2023-02-17T17:39:22.853Z,8.18
2023-02-17T17:41:51.144Z,9.13
2023-02-17T17:44:19.048Z,10.32
2023-02-17T17:46:45.874Z,11.27
2023-02-17T17:49:15.578Z,11.57
2023-02-17T17:51:43.102Z,8.85
2023-02-17T17:54:10.132Z,8.18
2023-02-17T17:56:43.125Z,7.05
2023-02-17T17:59:12.275Z,9.25
2023-02-17T18:01:39.358Z,8.55
2023-02-17T18:04:08.953Z,7.47
2023-02-17T18:06:49.413Z,7.47
2023-02-17T18:09:31.083Z,5.57
2023-02-17T18:12:04.300Z,6.13
2023-02-17T18:14:32.140Z,4.43
2023-02-17T18:16:59.561Z,3.78
2023-02-17T18:19:26.952Z,4.35
2023-02-17T18:21:53.744Z,3.72
2023-02-17T18:24:20.806Z,4.18
2023-02-17T18:26:47.748Z,6.07
2023-02-17T18:29:14.607Z,3.22
2023-02-17T18:31:41.867Z,5.03
2023-02-17T18:34:08.751Z,3.75
2023-02-17T18:36:35.567Z,3.88
2023-02-17T18:39:02.398Z,6.03
2023-02-17T18:41:31.697Z,5.07
2023-02-17T18:44:01.751Z,5.03
2023-02-17T18:46:29.077Z,5.00
2023-02-17T18:48:56.930Z,3.58
2023-02-17T18:51:27.740Z,5.22
2023-02-17T18:53:56.668Z,4.50
2023-02-17T18:56:27.394Z,4.15
2023-02-17T18:58:57.934Z,4.20
2023-02-17T19:01:33.831Z,4.07
2023-02-17T19:04:00.914Z,5.00
2023-02-17T19:06:32.360Z,4.75
2023-02-17T19:09:01.132Z,5.63
2023-02-17T19:11:28.233Z,5.68
2023-02-17T19:13:55.127Z,4.40
2023-02-17T19:16:25.901Z,3.15
2023-02-17T19:18:53.626Z,3.55
2023-02-17T19:21:21.830Z,4.82
2023-02-17T19:23:51.055Z,4.65
2023-02-17T19:26:18.690Z,4.13
2023-02-17T19:28:46.559Z,3.85
2023-02-17T19:31:17.560Z,5.20
2023-02-17T19:33:46.548Z,4.07
2023-02-17T19:36:21.808Z,3.35
2023-02-17T19:38:51.112Z,4.20
2023-02-17T19:41:19.540Z,3.22
2023-02-17T19:43:47.278Z,4.65
2023-02-17T19:46:26.943Z,5.00
2023-02-17T19:48:54.244Z,4.93
2023-02-17T19:51:21.364Z,4.93
2023-02-17T19:53:48.929Z,3.13
2023-02-17T19:56:19.591Z,4.10
2023-02-17T19:58:48.316Z,2.08
2023-02-17T20:01:28.722Z,4.82
2023-02-17T20:03:57.059Z,3.17
2023-02-17T20:06:31.684Z,3.78
2023-02-17T20:09:02.913Z,4.65
2023-02-17T20:11:32.037Z,6.70
2023-02-17T20:14:01.688Z,5.93
2023-02-17T20:16:30.358Z,8.13
2023-02-17T20:18:57.350Z,3.47
2023-02-17T20:21:28.575Z,4.13
2023-02-17T20:23:56.023Z,4.03
2023-02-17T20:26:29.723Z,4.47
2023-02-17T20:28:57.685Z,4.07
2023-02-17T20:31:26.285Z,4.90
2023-02-17T20:33:53.267Z,4.40
2023-02-17T20:36:22.368Z,5.65
2023-02-17T20:38:50.524Z,2.95
2023-02-17T20:41:20.442Z,3.22
2023-02-17T20:43:48.303Z,2.85
2023-02-17T20:46:22.690Z,2.83
2023-02-17T20:48:50.199Z,2.42
2023-02-17T20:51:17.205Z,3.92
2023-02-17T20:53:43.979Z,2.25
2023-02-17T20:56:18.287Z,4.22
2023-02-17T20:58:46.483Z,2.03
2023-02-17T21:01:13.903Z,2.97
2023-02-17T21:03:41.105Z,2.15
2023-02-17T21:06:31.666Z,2.33
2023-02-17T21:09:06.669Z,2.65
2023-02-17T21:11:36.436Z,4.07
2023-02-17T21:14:04.135Z,2.40
2023-02-17T21:16:32.234Z,2.42
2023-02-17T21:19:01.373Z,2.00
2023-02-17T21:21:30.039Z,2.42
2023-02-17T21:23:58.471Z,3.08
2023-02-17T21:26:25.582Z,4.22
2023-02-17T21:28:52.538Z,2.10
2023-02-17T21:31:19.802Z,2.38
2023-02-17T21:33:46.758Z,2.80
2023-02-17T21:36:18.794Z,1.55
2023-02-17T21:38:47.544Z,2.55
2023-02-17T21:41:22.815Z,2.92
2023-02-17T21:44:08.745Z,2.13
2023-02-17T21:46:37.541Z,2.45
2023-02-17T21:49:04.887Z,1.67
2023-02-17T21:51:32.248Z,2.08
2023-02-17T21:53:59.473Z,2.60
2023-02-17T21:56:26.731Z,2.17
2023-02-17T21:58:56.131Z,1.95
2023-02-17T22:01:26.422Z,2.35
2023-02-17T22:03:54.146Z,2.15
2023-02-17T22:06:35.711Z,1.35
2023-02-17T22:09:03.777Z,1.98
2023-02-17T22:11:36.904Z,3.85
2023-02-17T22:14:12.157Z,2.72
2023-02-17T22:16:39.403Z,2.47
2023-02-17T22:19:08.760Z,2.25
2023-02-17T22:21:36.062Z,3.13
2023-02-17T22:24:03.357Z,2.95
2023-02-17T22:26:31.118Z,1.70
2023-02-17T22:28:58.226Z,2.03
2023-02-17T22:31:28.889Z,2.58
2023-02-17T22:33:58.415Z,1.85
2023-02-17T22:36:27.575Z,2.10
2023-02-17T22:38:55.018Z,2.45
2023-02-17T22:41:25.272Z,1.80
2023-02-17T22:43:53.182Z,2.17
2023-02-17T22:46:23.243Z,2.60
2023-02-17T22:48:52.183Z,2.20
2023-02-17T22:51:26.757Z,2.40
2023-02-17T22:53:53.666Z,2.33
2023-02-17T22:56:21.821Z,2.58
2023-02-17T22:58:54.026Z,1.95
2023-02-17T23:01:21.334Z,2.38
2023-02-17T23:03:54.007Z,4.18
2023-02-17T23:06:28.648Z,2.30
2023-02-17T23:08:56.554Z,2.80
2023-02-17T23:11:45.689Z,3.00
2023-02-17T23:14:14.033Z,4.18
2023-02-17T23:16:41.224Z,1.88
2023-02-17T23:19:11.163Z,2.05
2023-02-17T23:21:43.250Z,2.20
2023-02-17T23:24:10.280Z,2.28
2023-02-17T23:26:37.282Z,1.90
2023-02-17T23:29:05.038Z,3.10
2023-02-17T23:31:33.192Z,1.55
2023-02-17T23:34:00.205Z,3.72
2023-02-17T23:36:27.369Z,2.10
2023-02-17T23:38:56.002Z,1.75
2023-02-17T23:41:23.072Z,1.85
2023-02-17T23:43:50.033Z,1.77
2023-02-17T23:46:17.081Z,1.70
2023-02-17T23:48:43.986Z,2.00
2023-02-17T23:51:18.038Z,2.03
2023-02-17T23:53:45.697Z,1.20
2023-02-17T23:56:19.734Z,1.88
2023-02-17T23:58:47.134Z,2.28
